createdAt,value
2023-03-05T00:02:21.827Z,4.40
2023-03-05T00:07:25.764Z,3.80
2023-03-05T00:12:30.776Z,4.68
2023-03-05T00:17:34.697Z,4.07
2023-03-05T00:22:38.776Z,4.43
2023-03-05T00:27:42.524Z,4.72
2023-03-05T00:32:46.524Z,4.30
2023-03-05T00:37:52.218Z,4.47
2023-03-05T00:42:56.120Z,4.20
2023-03-05T00:48:00.523Z,4.32
2023-03-05T00:53:04.511Z,4.25
2023-03-05T00:58:08.480Z,3.90
2023-03-05T01:03:12.422Z,4.20
2023-03-05T01:08:17.813Z,4.32
2023-03-05T01:13:21.799Z,4.18
2023-03-05T01:18:25.755Z,3.80
2023-03-05T01:23:29.594Z,3.95
2023-03-05T01:28:34.124Z,3.67
2023-03-05T01:33:39.283Z,4.53
2023-03-05T01:38:48.711Z,3.80
2023-03-05T01:43:53.644Z,3.60
2023-03-05T01:49:06.271Z,4.00
2023-03-05T01:54:12.860Z,3.53
2023-03-05T01:59:18.378Z,3.85
2023-03-05T02:04:29.924Z,4.50
2023-03-05T02:09:33.713Z,3.17
2023-03-05T02:14:38.425Z,4.32
2023-03-05T02:19:54.535Z,3.13
2023-03-05T02:24:58.495Z,3.30
2023-03-05T02:30:03.013Z,3.17
2023-03-05T02:35:08.047Z,3.40
2023-03-05T02:40:13.532Z,3.20
2023-03-05T02:45:18.727Z,3.25
2023-03-05T02:50:23.623Z,2.88
2023-03-05T02:55:27.482Z,3.53
2023-03-05T03:00:31.770Z,2.90
2023-03-05T03:05:37.496Z,3.30
2023-03-05T03:10:42.071Z,3.20
2023-03-05T03:15:47.089Z,2.83
2023-03-05T03:20:50.858Z,2.80
2023-03-05T03:25:54.785Z,2.70
2023-03-05T03:30:58.717Z,2.72
2023-03-05T03:36:04.283Z,3.05
2023-03-05T03:41:09.682Z,4.03
2023-03-05T03:46:13.572Z,3.03
2023-03-05T03:51:17.679Z,2.92
2023-03-05T03:56:21.534Z,3.00
2023-03-05T04:01:25.728Z,3.47
2023-03-05T04:06:29.695Z,3.20
2023-03-05T04:11:33.632Z,3.60
2023-03-05T04:16:37.610Z,2.88
2023-03-05T04:21:42.056Z,3.58
2023-03-05T04:26:46.271Z,3.10
2023-03-05T04:31:50.157Z,3.08
2023-03-05T04:36:54.044Z,3.10
2023-03-05T04:41:57.959Z,3.30
2023-03-05T04:47:01.699Z,3.05
2023-03-05T04:52:05.657Z,2.80
2023-03-05T04:57:09.458Z,2.80
2023-03-05T05:02:13.520Z,2.80
2023-03-05T05:07:17.633Z,3.47
2023-03-05T05:12:21.446Z,2.50
2023-03-05T05:17:25.755Z,2.83
2023-03-05T05:22:30.309Z,3.45
2023-03-05T05:27:34.453Z,2.42
2023-03-05T05:32:38.459Z,2.42
2023-03-05T05:37:42.448Z,2.47
2023-03-05T05:42:46.439Z,2.47
2023-03-05T05:48:27.553Z,2.28
2023-03-05T05:53:31.380Z,2.30
2023-03-05T05:58:35.632Z,2.30
2023-03-05T06:03:39.566Z,2.13
2023-03-05T06:08:44.250Z,2.58
2023-03-05T06:13:50.032Z,2.58
2023-03-05T06:18:54.439Z,2.95
2023-03-05T06:23:59.588Z,2.33
2023-03-05T06:29:03.716Z,2.47
2023-03-05T06:34:07.706Z,2.60
2023-03-05T06:39:11.575Z,2.58
2023-03-05T06:44:15.479Z,3.25
2023-03-05T06:49:20.422Z,2.22
2023-03-05T06:54:24.337Z,2.78
2023-03-05T06:59:28.225Z,2.42
2023-03-05T07:04:32.000Z,2.05
2023-03-05T07:09:36.313Z,2.20
2023-03-05T07:14:40.248Z,2.45
2023-03-05T07:19:44.829Z,1.98
2023-03-05T07:24:49.085Z,2.30
2023-03-05T07:29:52.925Z,2.05
2023-03-05T07:34:56.893Z,2.20
2023-03-05T07:40:00.663Z,2.45
2023-03-05T07:45:05.070Z,3.55
2023-03-05T07:50:09.956Z,2.20
2023-03-05T07:55:13.857Z,2.33
2023-03-05T08:00:18.476Z,2.30
2023-03-05T08:05:22.433Z,2.13
2023-03-05T08:10:26.730Z,2.50
2023-03-05T08:15:32.247Z,2.85
2023-03-05T08:20:37.405Z,2.30
2023-03-05T08:25:41.172Z,2.47
2023-03-05T08:30:45.239Z,2.65
2023-03-05T08:35:49.120Z,2.38
2023-03-05T08:40:52.996Z,2.47
2023-03-05T08:45:56.895Z,2.20
2023-03-05T08:51:08.117Z,2.88
2023-03-05T08:56:12.904Z,2.65
2023-03-05T09:01:16.888Z,2.20
2023-03-05T09:06:20.787Z,2.63
2023-03-05T09:11:24.970Z,2.30
2023-03-05T09:16:28.940Z,2.83
2023-03-05T09:21:32.774Z,2.88
2023-03-05T09:26:36.778Z,2.95
2023-03-05T09:31:41.165Z,3.25
2023-03-05T09:36:45.134Z,2.90
2023-03-05T09:42:09.881Z,2.80
2023-03-05T09:47:22.956Z,3.28
2023-03-05T09:52:54.622Z,2.88
2023-03-05T09:58:08.440Z,3.33
2023-03-05T10:03:44.615Z,3.63
2023-03-05T10:09:03.287Z,4.07
2023-03-05T10:14:14.699Z,3.50
2023-03-05T10:19:47.413Z,3.35
2023-03-05T10:25:09.398Z,3.35
2023-03-05T10:30:33.904Z,2.90
2023-03-05T10:36:01.408Z,3.10
2023-03-05T10:41:34.073Z,3.60
2023-03-05T10:46:40.608Z,3.70
2023-03-05T10:52:10.454Z,3.45
2023-03-05T10:57:20.215Z,3.40
2023-03-05T11:02:25.164Z,3.70
2023-03-05T11:07:39.144Z,3.85
2023-03-05T11:12:43.548Z,3.08
2023-03-05T11:17:49.706Z,3.25
2023-03-05T11:23:13.368Z,2.83
2023-03-05T11:28:32.201Z,2.53
2023-03-05T11:33:38.708Z,2.67
2023-03-05T11:39:08.664Z,2.08
2023-03-05T11:44:17.372Z,2.10
2023-03-05T11:49:25.023Z,2.28
2023-03-05T11:54:43.418Z,1.95
2023-03-05T11:59:47.468Z,1.63
2023-03-05T12:04:52.692Z,2.20
2023-03-05T12:09:56.760Z,1.80
2023-03-05T12:22:17.194Z,1.98
2023-03-05T12:27:47.481Z,1.70
2023-03-05T12:32:54.810Z,1.92
2023-03-05T12:38:02.954Z,2.13
2023-03-05T12:43:34.016Z,1.80
2023-03-05T12:48:44.255Z,1.70
2023-03-05T12:53:52.555Z,2.10
2023-03-05T12:59:01.377Z,2.28
2023-03-05T13:04:11.967Z,2.65
2023-03-05T13:09:37.103Z,2.15
2023-03-05T13:14:45.894Z,2.05
2023-03-05T13:19:49.970Z,2.97
2023-03-05T13:25:15.171Z,2.80
2023-03-05T13:30:28.729Z,3.38
2023-03-05T13:35:34.262Z,3.40
2023-03-05T13:40:38.991Z,1.75
2023-03-05T13:45:45.082Z,2.03
2023-03-05T13:50:57.478Z,2.25
2023-03-05T13:56:05.899Z,2.63
2023-03-05T14:01:33.221Z,2.10
2023-03-05T14:06:47.242Z,2.05
2023-03-05T14:12:31.277Z,1.70
2023-03-05T14:17:42.536Z,2.70
2023-03-05T14:22:49.268Z,2.25
2023-03-05T14:27:53.464Z,2.10
2023-03-05T14:33:00.113Z,2.60
2023-03-05T14:38:04.188Z,3.00
2023-03-05T14:43:12.570Z,3.17
2023-03-05T14:48:19.761Z,2.83
2023-03-05T14:53:27.595Z,2.70
2023-03-05T14:58:34.340Z,2.37
2023-03-05T15:03:39.448Z,2.50
2023-03-05T15:08:43.230Z,2.80
2023-03-05T15:13:47.199Z,3.17
2023-03-05T15:18:51.622Z,3.20
2023-03-05T15:23:55.556Z,3.67
2023-03-05T15:28:59.641Z,3.00
2023-03-05T15:34:03.455Z,3.20
2023-03-05T15:39:08.147Z,2.90
2023-03-05T15:44:12.049Z,3.30
2023-03-05T15:49:16.750Z,3.42
2023-03-05T15:54:20.798Z,2.90
2023-03-05T15:59:24.646Z,2.90
2023-03-05T16:04:30.229Z,2.50
2023-03-05T16:09:40.116Z,3.22
2023-03-05T16:14:44.032Z,3.80
2023-03-05T16:19:53.206Z,2.97
2023-03-05T16:24:58.448Z,3.70
2023-03-05T16:30:03.061Z,3.20
2023-03-05T16:35:07.780Z,3.35
2023-03-05T16:40:12.926Z,2.85
2023-03-05T16:45:16.990Z,3.10
2023-03-05T16:50:20.832Z,4.03
2023-03-05T16:55:24.812Z,2.75
2023-03-05T17:00:28.746Z,3.15
2023-03-05T17:05:32.527Z,3.00
2023-03-05T17:10:36.442Z,3.15
2023-03-05T17:15:40.323Z,3.63
2023-03-05T17:20:44.188Z,4.15
2023-03-05T17:25:48.410Z,3.20
2023-03-05T17:30:52.468Z,3.17
2023-03-05T17:35:56.878Z,2.70
2023-03-05T17:41:00.850Z,3.53
2023-03-05T17:46:04.755Z,3.30
2023-03-05T17:51:12.532Z,3.28
2023-03-05T17:56:17.827Z,4.22
2023-03-05T18:01:31.176Z,3.63
2023-03-05T18:06:35.041Z,2.70
2023-03-05T18:11:39.221Z,3.30
2023-03-05T18:16:43.053Z,3.85
2023-03-05T18:21:47.140Z,3.65
2023-03-05T18:26:51.373Z,3.65
2023-03-05T18:31:55.443Z,3.30
2023-03-05T18:37:01.370Z,3.60
2023-03-05T18:42:05.228Z,3.92
2023-03-05T18:47:09.343Z,4.45
2023-03-05T18:52:13.918Z,10.15
2023-03-05T18:57:17.746Z,12.02
2023-03-05T19:02:21.444Z,7.25
2023-03-05T19:07:25.548Z,8.45
2023-03-05T19:12:35.788Z,7.65
2023-03-05T19:17:39.993Z,5.97
2023-03-05T19:22:44.163Z,5.18
2023-03-05T19:27:48.270Z,6.32
2023-03-05T19:32:52.272Z,6.00
2023-03-05T19:37:56.226Z,6.20
2023-03-05T19:43:00.188Z,6.40
2023-03-05T19:48:04.133Z,8.40
2023-03-05T19:53:08.065Z,5.88
2023-03-05T19:58:12.001Z,5.03
2023-03-05T20:03:15.939Z,4.90
2023-03-05T20:08:20.008Z,4.38
2023-03-05T20:13:26.835Z,4.65
2023-03-05T20:18:31.605Z,4.15
2023-03-05T20:23:35.391Z,4.53
2023-03-05T20:28:39.408Z,4.30
2023-03-05T20:33:43.284Z,4.57
2023-03-05T20:38:47.340Z,3.95
2023-03-05T20:43:52.560Z,5.05
2023-03-05T20:48:59.845Z,4.85
2023-03-05T20:54:08.306Z,4.85
2023-03-05T20:59:12.341Z,5.03
2023-03-05T21:04:17.119Z,5.20
2023-03-05T21:09:21.079Z,4.18
2023-03-05T21:14:24.764Z,4.93
2023-03-05T21:19:28.738Z,5.22
2023-03-05T21:24:43.564Z,5.50
2023-03-05T21:29:47.424Z,5.40
2023-03-05T21:34:51.617Z,6.00
2023-03-05T21:39:55.577Z,6.45
2023-03-05T21:44:59.556Z,6.25
2023-03-05T21:50:03.349Z,6.25
2023-03-05T21:55:07.545Z,5.85
2023-03-05T22:00:13.897Z,6.65
2023-03-05T22:05:18.074Z,6.60
2023-03-05T22:10:21.984Z,6.10
2023-03-05T22:15:25.940Z,5.88
2023-03-05T22:20:30.009Z,6.50
2023-03-05T22:25:34.067Z,6.40
2023-03-05T22:30:43.489Z,6.20
2023-03-05T22:35:48.255Z,6.50
2023-03-05T22:40:53.036Z,6.00
2023-03-05T22:45:56.974Z,6.47
2023-03-05T22:51:00.917Z,7.13
2023-03-05T22:56:31.070Z,7.43
2023-03-05T23:01:34.870Z,7.75
2023-03-05T23:06:38.694Z,6.57
2023-03-05T23:11:42.502Z,7.00
2023-03-05T23:16:46.367Z,7.38
2023-03-05T23:21:50.127Z,8.45
2023-03-05T23:26:53.900Z,6.10
2023-03-05T23:31:57.862Z,7.22
2023-03-05T23:37:01.722Z,8.18
2023-03-05T23:42:05.686Z,6.80
2023-03-05T23:47:09.509Z,7.18
2023-03-05T23:52:13.203Z,7.20
2023-03-05T23:57:17.036Z,8.02
